Maxatawny, Pennsylvania
Current Conditions -  °F | °C
As of 12:15 PM on Thursday 18 Dec 2014 (Local Time) from KXLL Reporting Station
Overcast Overcast  
Wind Chill: 31°   Ceiling: 4000
Heat Index: 37°   Visibility: 10mi
Dew Point: 23°   Wind: 9mph
Humidity: 56%   Direction: 280°W
Pressure: 30.03"   Gusts: NA
Location:  40.54°N, 75.69°W
Report Text: KXLL 181715Z AUTO 28008KT 10SM OVC040 03/M05 A3003 RMK AO2
Loading
Personal Weather Stations






























Interactive Weather Map New forecast layout! Learn more

10-Day Weather Forecast

Advertisements
Track Severe Weather on mobile